Springview, Nebraska
Current Conditions -  °F | °C
As of 7:35 PM on Tuesday 25 Nov 2014 (Local Time) from KANW Reporting Station
Overcast Overcast  
Wind Chill: 27°   Ceiling: 3200
Heat Index: 36°   Visibility: 10mi
Dew Point: 32°   Wind: 14mph
Humidity: 87%   Direction: 290°WNW
Pressure: 29.83"   Gusts: NA
Location:  42.82°N, 99.75°W
Report Text: KANW 260135Z AUTO 29012KT 10SM BKN032 OVC120 02/00 A2983 RMK AO2 T00200000
Loading
Personal Weather Stations






























Interactive Weather Map New forecast layout! Learn more

10-Day Weather Forecast

Advertisements
Track Severe Weather on mobile